KMML/MML METAR and TAF weather

Enter ICAO airport designator
Station Type Date Time Source
KMML METAR 2022/12/10 01:56 UTC NOAA

KMML 100156Z AUTO 13009KT 2SM BR OVC002 M02/M02 A3014 RMK AO2 SLP224 T10171022 FZRANO


Station Type Date Time Source
KMML Decoded METAR 2022/12/10 01:56 UTC NOAA

Marshall, Southwest Minnesota Regional Airport - Marshall/Ryan Field, MN, United States (KMML) 44-27N 095-49W
Dec 09, 2022 - 08:56 PM EST / 2022.12.10 0156 UTC
Wind: from the SE (130 degrees) at 10 MPH (9 KT):0
Visibility: 2 mile(s):0
Sky conditions: overcast
Weather: mist
Temperature: 28.9 F (-1.7 C)
Windchill: 19 F (-7 C):1
Dew Point: 28.0 F (-2.2 C)
Relative Humidity: 96%
Pressure (altimeter): 30.14 in. Hg (1020 hPa)
ob: KMML 100156Z AUTO 13009KT 2SM BR OVC002 M02/M02 A3014 RMK AO2 SLP224 T10171022 FZRANO
cycle: 2

Station Type Date Time Source
KMML TAF UTC NOAA

Error!

Example: see airport list